Sunray, Texas
Current Conditions -  °F | °C
As of 1:15 PM on Saturday 25 Oct 2014 (Local Time) from KDUX Reporting Station
NA  
Wind Chill: 28°   Ceiling: NA
Heat Index: 28°   Visibility: 10mi
Dew Point:   Wind: 13mph
Humidity: 29%   Direction: 190°S
Pressure: 30.15"   Gusts: NA
Location:  36.02°N, 101.82°W
Report Text: KDUX 251815Z AUTO 19011KT 10SM 28/08 A3015 RMK AO2 T02800083
Loading
Personal Weather Stations






























Interactive Weather Map
Tropical Storm Tracking
New forecast layout! Learn more

10-Day Weather Forecast

Advertisements
Track Severe Weather on mobile